ADDS METAR Data INFO
IDs: Format: Raw Decoded Include TAF

Data at: 1011 UTC 14 Dec 2017

KAPC 140954Z AUTO 00000KT CLR 01/M01 A3007 RMK AO2 SLP174 T00061006 $
KAPC 140854Z AUTO 11003KT CLR 01/M01 A3008 RMK AO2 SLP175 T00061006 58002 $
KAPC 140754Z AUTO 00000KT CLR 02/01 A3008 RMK AO2 SLP178 T00170011 401561022 $
KAPC 140654Z AUTO 00000KT CLR 03/01 A3009 RMK AO2 SLP179 T00280011 $
KAPC 140554Z AUTO 01003KT CLR 04/02 A3008 RMK AO2 SLP177 T00440022 10133 20028 50001 $
KAPC 140454Z AUTO 00000KT CLR 03/02 A3009 RMK AO2 SLP179 T00330022 $
KAPC 140354Z AUTO 35003KT CLR 04/03 A3008 RMK AO2 SLP175 T00440028 $
KAPC 140254Z 04003KT CLR 06/03 A3008 RMK AO2 SLP176 T00610028 55000 $
KAPC 140154Z 06003KT 8SM CLR 08/04 A3007 RMK AO2 SLP174 T00830039 $
KAPC 140054Z 00000KT 10SM CLR 11/04 A3008 RMK AO2 SLP175 T01060044 $
KAPC 132354Z 21003KT 10SM CLR 13/06 A3008 RMK AO2 SLP176 T01330056 10156 20078 56014 $
KAPC 132254Z 22004KT 10SM CLR 14/04 A3008 RMK AO2 SLP178 T01390044 $
KAPC 132154Z 23005KT CLR 14/04 A3009 RMK AO2 SLP182 T01390039 $
KAPC 132054Z COR 10008KT CLR 10SM 14/03 A3012 RMK AO2 SLP189 T01440033 57029 $
KAPC 131954Z 11008KT CLR 14/03 A3014 RMK AO2 SLP198 T01390028 $
KAPC 131854Z 00000KT 10SM CLR 11/04 A3018 RMK AO2 SLP210 T01060039 $
KAPC 131754Z 32004KT 10SM CLR 08/03 A3020 RMK AO2 SLP219 T00780033 10078 21022 51010 $
KAPC 131654Z 00000KT 10SM CLR 05/02 A3020 RMK AO2 SLP216 T00500022 $
KAPC 131554Z COR 31003KT 10SM CLR 01/M01 A3020 RMK AO2 SLP216 T00061006 $
KAPC 131454Z AUTO 33004KT 10SM CLR M01/M03 A3017 RMK AO2 SLP208 T10061028 58004
KAPC 131354Z AUTO 00000KT 10SM CLR 01/M01 A3019 RMK AO2 SLP213 T00061011
KAPC 131300Z AUTO 09003KT 3SM BR CLR M02/M02 A3019 RMK AO2 T10171022
KAPC 131254Z AUTO 07003KT 1 3/4SM BR CLR M02/M02 A3019 RMK AO2 SLP213 T10221022
KAPC 131154Z AUTO 00000KT 10SM CLR 01/M01 A3019 RMK AO2 SLP213 T00061006 10044 21011 55001
KAPC 131054Z AUTO 00000KT 10SM CLR 00/M01 A3018 RMK AO2 SLP212 T00001011
KAPC 130954Z AUTO 06003KT 10SM CLR 00/M01 A3019 RMK AO2 SLP213 T00001011
KAPC 130854Z AUTO 11003KT 10SM CLR 02/00 A3019 RMK AO2 SLP213 T00170000 58004
KAPC 130754Z AUTO 35003KT 10SM CLR 03/02 A3020 RMK AO2 SLP216 T00330017 401721022
KAPC 130654Z AUTO 01005KT 10SM CLR 04/02 A3020 RMK AO2 SLP218 T00390017
KAPC 130554Z AUTO 00000KT 10SM CLR 03/01 A3020 RMK AO2 SLP217 T00280011 10156 20022 53003
KAPC 130454Z AUTO 34004KT 10SM CLR 03/01 A3019 RMK AO2 SLP215 T00330011
KAPC 130354Z AUTO 00000KT 10SM CLR 06/02 A3019 RMK AO2 SLP214 T00560017
KAPC 130254Z 05003KT 10SM CLR 06/02 A3019 RMK AO2 SLP214 T00560017 56005
KAPC 130154Z 11003KT 10SM CLR 07/02 A3020 RMK AO2 SLP216 T00670022
KAPC 130054Z 00000KT 10SM CLR 13/05 A3020 RMK AO2 SLP217 T01280050
KAPC 122354Z 00000KT 10SM CLR 16/06 A3020 RMK AO2 SLP219 T01560056 10172 20089 56020
KAPC 122254Z 00000KT 10SM CLR 17/03 A3022 RMK AO2 SLP223 T01670033